sensor_id;sensor_type;location;lat;lon;timestamp;temperature;humidity
62991;DHT22;49084;48.204;16.202;2023-04-25T00:01:05;10.10;99.90
62991;DHT22;49084;48.204;16.202;2023-04-25T00:03:32;10.10;99.90
62991;DHT22;49084;48.204;16.202;2023-04-25T00:05:58;10.10;99.90
62991;DHT22;49084;48.204;16.202;2023-04-25T00:08:29;10.10;99.90
62991;DHT22;49084;48.204;16.202;2023-04-25T00:10:54;10.10;99.90
62991;DHT22;49084;48.204;16.202;2023-04-25T00:13:20;10.10;99.90
62991;DHT22;49084;48.204;16.202;2023-04-25T00:15:46;10.10;99.90
62991;DHT22;49084;48.204;16.202;2023-04-25T00:18:14;10.00;99.90
62991;DHT22;49084;48.204;16.202;2023-04-25T00:20:39;10.00;99.90
62991;DHT22;49084;48.204;16.202;2023-04-25T00:23:05;10.10;99.90
62991;DHT22;49084;48.204;16.202;2023-04-25T00:25:31;10.10;99.90
62991;DHT22;49084;48.204;16.202;2023-04-25T00:27:57;10.00;99.90
62991;DHT22;49084;48.204;16.202;2023-04-25T00:30:23;10.00;99.90
62991;DHT22;49084;48.204;16.202;2023-04-25T00:32:48;10.00;99.90
62991;DHT22;49084;48.204;16.202;2023-04-25T00:35:15;10.00;99.90
62991;DHT22;49084;48.204;16.202;2023-04-25T00:37:40;10.00;99.90
62991;DHT22;49084;48.204;16.202;2023-04-25T00:40:06;10.00;99.90
62991;DHT22;49084;48.204;16.202;2023-04-25T00:42:34;10.00;99.90
62991;DHT22;49084;48.204;16.202;2023-04-25T00:45:00;10.00;99.90
62991;DHT22;49084;48.204;16.202;2023-04-25T00:47:27;10.00;99.90
62991;DHT22;49084;48.204;16.202;2023-04-25T00:49:53;9.90;99.90
62991;DHT22;49084;48.204;16.202;2023-04-25T00:52:19;9.90;99.90
62991;DHT22;49084;48.204;16.202;2023-04-25T00:54:45;9.90;99.90
62991;DHT22;49084;48.204;16.202;2023-04-25T00:57:11;9.90;99.90
62991;DHT22;49084;48.204;16.202;2023-04-25T00:59:38;9.90;99.90
62991;DHT22;49084;48.204;16.202;2023-04-25T01:02:04;9.90;99.90
62991;DHT22;49084;48.204;16.202;2023-04-25T01:04:30;9.90;99.90
62991;DHT22;49084;48.204;16.202;2023-04-25T01:06:56;9.90;99.90
62991;DHT22;49084;48.204;16.202;2023-04-25T01:09:23;9.90;99.90
62991;DHT22;49084;48.204;16.202;2023-04-25T01:11:49;9.90;99.90
62991;DHT22;49084;48.204;16.202;2023-04-25T01:14:15;9.90;99.90
62991;DHT22;49084;48.204;16.202;2023-04-25T01:16:41;9.90;99.90
62991;DHT22;49084;48.204;16.202;2023-04-25T01:19:09;9.90;99.90
62991;DHT22;49084;48.204;16.202;2023-04-25T01:21:38;9.90;99.90
62991;DHT22;49084;48.204;16.202;2023-04-25T01:24:05;9.90;99.90
62991;DHT22;49084;48.204;16.202;2023-04-25T01:26:31;9.90;99.90
62991;DHT22;49084;48.204;16.202;2023-04-25T01:28:58;9.80;99.90
62991;DHT22;49084;48.204;16.202;2023-04-25T01:31:24;9.90;99.90
62991;DHT22;49084;48.204;16.202;2023-04-25T01:33:50;9.80;99.90
62991;DHT22;49084;48.204;16.202;2023-04-25T01:36:17;9.80;99.90
62991;DHT22;49084;48.204;16.202;2023-04-25T01:38:43;9.80;99.90
62991;DHT22;49084;48.204;16.202;2023-04-25T01:41:09;9.80;99.90
62991;DHT22;49084;48.204;16.202;2023-04-25T01:43:35;9.80;99.90
62991;DHT22;49084;48.204;16.202;2023-04-25T01:46:01;9.80;99.90
62991;DHT22;49084;48.204;16.202;2023-04-25T01:48:26;9.70;99.90
62991;DHT22;49084;48.204;16.202;2023-04-25T01:50:52;9.70;99.90
62991;DHT22;49084;48.204;16.202;2023-04-25T01:53:18;9.70;99.90
62991;DHT22;49084;48.204;16.202;2023-04-25T01:55:43;9.60;99.90
62991;DHT22;49084;48.204;16.202;2023-04-25T01:58:09;9.70;99.90
62991;DHT22;49084;48.204;16.202;2023-04-25T02:00:37;9.60;99.90
62991;DHT22;49084;48.204;16.202;2023-04-25T02:03:04;9.50;99.90
62991;DHT22;49084;48.204;16.202;2023-04-25T02:05:38;9.50;99.90
62991;DHT22;49084;48.204;16.202;2023-04-25T02:08:05;9.50;99.90
62991;DHT22;49084;48.204;16.202;2023-04-25T02:10:31;9.50;99.90
62991;DHT22;49084;48.204;16.202;2023-04-25T02:12:58;9.40;99.90
62991;DHT22;49084;48.204;16.202;2023-04-25T02:15:24;9.40;99.90
62991;DHT22;49084;48.204;16.202;2023-04-25T02:17:49;9.40;99.90
62991;DHT22;49084;48.204;16.202;2023-04-25T02:20:15;9.30;99.90
62991;DHT22;49084;48.204;16.202;2023-04-25T02:22:45;9.40;99.90
62991;DHT22;49084;48.204;16.202;2023-04-25T02:25:11;9.30;99.90
62991;DHT22;49084;48.204;16.202;2023-04-25T02:27:37;9.30;99.90
62991;DHT22;49084;48.204;16.202;2023-04-25T02:30:04;9.30;99.90
62991;DHT22;49084;48.204;16.202;2023-04-25T02:32:30;9.30;99.90
62991;DHT22;49084;48.204;16.202;2023-04-25T02:34:56;9.20;99.90
62991;DHT22;49084;48.204;16.202;2023-04-25T02:37:24;9.20;99.90
62991;DHT22;49084;48.204;16.202;2023-04-25T02:39:49;9.10;99.90
62991;DHT22;49084;48.204;16.202;2023-04-25T02:42:15;9.10;99.90
62991;DHT22;49084;48.204;16.202;2023-04-25T02:44:41;9.20;99.90
62991;DHT22;49084;48.204;16.202;2023-04-25T02:47:06;9.20;99.90
62991;DHT22;49084;48.204;16.202;2023-04-25T02:49:32;9.20;99.90
62991;DHT22;49084;48.204;16.202;2023-04-25T02:51:58;9.20;99.90
62991;DHT22;49084;48.204;16.202;2023-04-25T02:54:23;9.20;99.90
62991;DHT22;49084;48.204;16.202;2023-04-25T02:56:49;9.10;99.90
62991;DHT22;49084;48.204;16.202;2023-04-25T02:59:15;9.10;99.90
62991;DHT22;49084;48.204;16.202;2023-04-25T03:01:40;9.10;99.90
62991;DHT22;49084;48.204;16.202;2023-04-25T03:04:06;9.10;99.90
62991;DHT22;49084;48.204;16.202;2023-04-25T03:06:32;9.10;99.90
62991;DHT22;49084;48.204;16.202;2023-04-25T03:08:57;9.10;99.90
62991;DHT22;49084;48.204;16.202;2023-04-25T03:11:25;9.00;99.90
62991;DHT22;49084;48.204;16.202;2023-04-25T03:13:50;9.00;99.90
62991;DHT22;49084;48.204;16.202;2023-04-25T03:16:16;9.00;99.90
62991;DHT22;49084;48.204;16.202;2023-04-25T03:18:42;8.90;99.90
62991;DHT22;49084;48.204;16.202;2023-04-25T03:21:07;8.90;99.90
62991;DHT22;49084;48.204;16.202;2023-04-25T03:23:33;8.90;99.90
62991;DHT22;49084;48.204;16.202;2023-04-25T03:25:59;8.80;99.90
62991;DHT22;49084;48.204;16.202;2023-04-25T03:28:25;8.80;99.90
62991;DHT22;49084;48.204;16.202;2023-04-25T03:30:51;8.90;99.90
62991;DHT22;49084;48.204;16.202;2023-04-25T03:33:16;8.80;99.90
62991;DHT22;49084;48.204;16.202;2023-04-25T03:35:42;8.80;99.90
62991;DHT22;49084;48.204;16.202;2023-04-25T03:38:08;8.70;99.90
62991;DHT22;49084;48.204;16.202;2023-04-25T03:40:33;8.80;99.90
62991;DHT22;49084;48.204;16.202;2023-04-25T03:42:59;8.80;99.90
62991;DHT22;49084;48.204;16.202;2023-04-25T03:45:25;8.70;99.90
62991;DHT22;49084;48.204;16.202;2023-04-25T03:47:50;8.70;99.90
62991;DHT22;49084;48.204;16.202;2023-04-25T03:50:16;8.60;99.90
62991;DHT22;49084;48.204;16.202;2023-04-25T03:52:43;8.60;99.90
62991;DHT22;49084;48.204;16.202;2023-04-25T03:55:09;8.50;99.90
62991;DHT22;49084;48.204;16.202;2023-04-25T03:57:34;8.50;99.90
62991;DHT22;49084;48.204;16.202;2023-04-25T04:00:00;8.50;99.90
62991;DHT22;49084;48.204;16.202;2023-04-25T04:02:26;8.50;99.90
62991;DHT22;49084;48.204;16.202;2023-04-25T04:04:51;8.50;99.90
62991;DHT22;49084;48.204;16.202;2023-04-25T04:07:17;8.40;99.90
62991;DHT22;49084;48.204;16.202;2023-04-25T04:09:43;8.40;99.90
62991;DHT22;49084;48.204;16.202;2023-04-25T04:12:08;8.30;99.90
62991;DHT22;49084;48.204;16.202;2023-04-25T04:14:34;8.30;99.90
62991;DHT22;49084;48.204;16.202;2023-04-25T04:17:00;8.30;99.90
62991;DHT22;49084;48.204;16.202;2023-04-25T04:19:26;8.30;99.90
62991;DHT22;49084;48.204;16.202;2023-04-25T04:21:51;8.20;99.90
62991;DHT22;49084;48.204;16.202;2023-04-25T04:24:17;8.20;99.90
62991;DHT22;49084;48.204;16.202;2023-04-25T04:26:43;8.10;99.90
62991;DHT22;49084;48.204;16.202;2023-04-25T04:29:10;8.10;99.90
62991;DHT22;49084;48.204;16.202;2023-04-25T04:31:36;8.10;99.90
62991;DHT22;49084;48.204;16.202;2023-04-25T04:34:02;8.10;99.90
62991;DHT22;49084;48.204;16.202;2023-04-25T04:36:29;8.00;99.90
62991;DHT22;49084;48.204;16.202;2023-04-25T04:38:55;8.00;99.90
62991;DHT22;49084;48.204;16.202;2023-04-25T04:41:22;7.90;99.90
62991;DHT22;49084;48.204;16.202;2023-04-25T04:43:47;7.90;99.90
62991;DHT22;49084;48.204;16.202;2023-04-25T04:46:13;7.80;99.90
62991;DHT22;49084;48.204;16.202;2023-04-25T04:48:39;7.80;99.90
62991;DHT22;49084;48.204;16.202;2023-04-25T04:51:06;7.70;99.90
62991;DHT22;49084;48.204;16.202;2023-04-25T04:53:32;7.70;99.90
62991;DHT22;49084;48.204;16.202;2023-04-25T04:55:57;7.60;99.90
62991;DHT22;49084;48.204;16.202;2023-04-25T04:58:23;7.60;99.90
62991;DHT22;49084;48.204;16.202;2023-04-25T05:00:49;7.60;99.90
62991;DHT22;49084;48.204;16.202;2023-04-25T05:03:15;7.50;99.90
62991;DHT22;49084;48.204;16.202;2023-04-25T05:05:41;7.60;99.90
62991;DHT22;49084;48.204;16.202;2023-04-25T05:08:07;7.50;99.90
62991;DHT22;49084;48.204;16.202;2023-04-25T05:10:33;7.50;99.90
62991;DHT22;49084;48.204;16.202;2023-04-25T05:12:58;7.40;99.90
62991;DHT22;49084;48.204;16.202;2023-04-25T05:15:24;7.40;99.90
62991;DHT22;49084;48.204;16.202;2023-04-25T05:17:50;7.40;99.90
62991;DHT22;49084;48.204;16.202;2023-04-25T05:20:21;7.30;99.90
62991;DHT22;49084;48.204;16.202;2023-04-25T05:22:47;7.30;99.90
62991;DHT22;49084;48.204;16.202;2023-04-25T05:25:12;7.40;99.90
62991;DHT22;49084;48.204;16.202;2023-04-25T05:27:38;7.50;99.90
62991;DHT22;49084;48.204;16.202;2023-04-25T05:30:04;7.60;99.90
62991;DHT22;49084;48.204;16.202;2023-04-25T05:32:30;7.70;99.90
62991;DHT22;49084;48.204;16.202;2023-04-25T05:34:56;7.80;99.90
62991;DHT22;49084;48.204;16.202;2023-04-25T05:37:22;8.00;99.90
62991;DHT22;49084;48.204;16.202;2023-04-25T05:39:47;8.10;99.90
62991;DHT22;49084;48.204;16.202;2023-04-25T05:42:13;8.30;99.90
62991;DHT22;49084;48.204;16.202;2023-04-25T05:44:39;8.40;99.90
62991;DHT22;49084;48.204;16.202;2023-04-25T05:47:04;8.60;99.90
62991;DHT22;49084;48.204;16.202;2023-04-25T05:49:30;8.70;99.90
62991;DHT22;49084;48.204;16.202;2023-04-25T05:51:56;8.90;99.90
62991;DHT22;49084;48.204;16.202;2023-04-25T05:54:22;9.00;99.90
62991;DHT22;49084;48.204;16.202;2023-04-25T05:56:47;9.20;99.90
62991;DHT22;49084;48.204;16.202;2023-04-25T05:59:13;9.40;99.90
62991;DHT22;49084;48.204;16.202;2023-04-25T06:01:38;9.70;99.90
62991;DHT22;49084;48.204;16.202;2023-04-25T06:04:05;10.20;99.90
62991;DHT22;49084;48.204;16.202;2023-04-25T06:06:31;10.70;99.90
62991;DHT22;49084;48.204;16.202;2023-04-25T06:08:57;11.00;99.90
62991;DHT22;49084;48.204;16.202;2023-04-25T06:11:22;11.20;99.90
62991;DHT22;49084;48.204;16.202;2023-04-25T06:13:48;11.50;99.90
62991;DHT22;49084;48.204;16.202;2023-04-25T06:16:14;11.70;99.90
62991;DHT22;49084;48.204;16.202;2023-04-25T06:18:39;12.00;99.90
62991;DHT22;49084;48.204;16.202;2023-04-25T06:21:05;12.30;99.90
62991;DHT22;49084;48.204;16.202;2023-04-25T06:23:31;12.70;99.90
62991;DHT22;49084;48.204;16.202;2023-04-25T06:25:56;12.90;99.90
62991;DHT22;49084;48.204;16.202;2023-04-25T06:28:22;13.00;99.90
62991;DHT22;49084;48.204;16.202;2023-04-25T06:30:50;13.40;99.90
62991;DHT22;49084;48.204;16.202;2023-04-25T06:33:15;13.90;99.80
62991;DHT22;49084;48.204;16.202;2023-04-25T06:35:41;14.10;97.60
62991;DHT22;49084;48.204;16.202;2023-04-25T06:38:06;14.20;96.00
62991;DHT22;49084;48.204;16.202;2023-04-25T06:40:32;14.10;95.30
62991;DHT22;49084;48.204;16.202;2023-04-25T06:42:58;14.30;94.50
62991;DHT22;49084;48.204;16.202;2023-04-25T06:45:23;14.00;94.50
62991;DHT22;49084;48.204;16.202;2023-04-25T06:47:49;13.70;95.10
62991;DHT22;49084;48.204;16.202;2023-04-25T06:50:14;13.90;95.50
62991;DHT22;49084;48.204;16.202;2023-04-25T06:52:40;14.10;94.00
62991;DHT22;49084;48.204;16.202;2023-04-25T06:55:06;14.40;93.80
62991;DHT22;49084;48.204;16.202;2023-04-25T06:57:32;14.70;93.40
62991;DHT22;49084;48.204;16.202;2023-04-25T06:59:57;15.00;89.50
62991;DHT22;49084;48.204;16.202;2023-04-25T07:02:23;14.90;90.70
62991;DHT22;49084;48.204;16.202;2023-04-25T07:04:49;14.60;88.20
62991;DHT22;49084;48.204;16.202;2023-04-25T07:07:14;14.30;88.90
62991;DHT22;49084;48.204;16.202;2023-04-25T07:09:40;14.20;90.60
62991;DHT22;49084;48.204;16.202;2023-04-25T07:12:06;14.10;91.30
62991;DHT22;49084;48.204;16.202;2023-04-25T07:14:31;14.20;90.90
62991;DHT22;49084;48.204;16.202;2023-04-25T07:16:57;14.30;90.60
62991;DHT22;49084;48.204;16.202;2023-04-25T07:19:23;14.40;90.60
62991;DHT22;49084;48.204;16.202;2023-04-25T07:21:52;14.30;89.70
62991;DHT22;49084;48.204;16.202;2023-04-25T07:24:17;14.50;90.30
62991;DHT22;49084;48.204;16.202;2023-04-25T07:26:43;14.60;90.40
62991;DHT22;49084;48.204;16.202;2023-04-25T07:29:09;14.90;90.60
62991;DHT22;49084;48.204;16.202;2023-04-25T07:31:35;15.30;90.50
62991;DHT22;49084;48.204;16.202;2023-04-25T07:34:01;15.40;89.30
62991;DHT22;49084;48.204;16.202;2023-04-25T07:36:26;15.70;88.10
62991;DHT22;49084;48.204;16.202;2023-04-25T07:38:52;16.00;88.30
62991;DHT22;49084;48.204;16.202;2023-04-25T07:41:18;16.40;85.30
62991;DHT22;49084;48.204;16.202;2023-04-25T07:43:43;16.60;83.30
62991;DHT22;49084;48.204;16.202;2023-04-25T07:46:09;16.70;82.50
62991;DHT22;49084;48.204;16.202;2023-04-25T07:48:35;16.80;78.80
62991;DHT22;49084;48.204;16.202;2023-04-25T07:51:00;16.40;80.20
62991;DHT22;49084;48.204;16.202;2023-04-25T07:53:26;15.90;82.50
62991;DHT22;49084;48.204;16.202;2023-04-25T07:55:52;15.60;82.30
62991;DHT22;49084;48.204;16.202;2023-04-25T07:58:18;15.60;80.40
62991;DHT22;49084;48.204;16.202;2023-04-25T08:00:47;15.90;80.60
62991;DHT22;49084;48.204;16.202;2023-04-25T08:03:13;16.00;78.90
62991;DHT22;49084;48.204;16.202;2023-04-25T08:05:38;16.40;79.50
62991;DHT22;49084;48.204;16.202;2023-04-25T08:08:04;17.00;79.20
62991;DHT22;49084;48.204;16.202;2023-04-25T08:10:32;17.30;74.80
62991;DHT22;49084;48.204;16.202;2023-04-25T08:12:58;17.40;74.00
62991;DHT22;49084;48.204;16.202;2023-04-25T08:15:24;17.70;71.20
62991;DHT22;49084;48.204;16.202;2023-04-25T08:17:50;17.50;69.40
62991;DHT22;49084;48.204;16.202;2023-04-25T08:20:16;17.00;71.10
62991;DHT22;49084;48.204;16.202;2023-04-25T08:22:42;16.90;71.70
62991;DHT22;49084;48.204;16.202;2023-04-25T08:25:08;17.10;71.60
62991;DHT22;49084;48.204;16.202;2023-04-25T08:27:34;17.60;72.90
62991;DHT22;49084;48.204;16.202;2023-04-25T08:30:00;17.60;71.50
62991;DHT22;49084;48.204;16.202;2023-04-25T08:32:26;17.30;71.70
62991;DHT22;49084;48.204;16.202;2023-04-25T08:34:51;17.20;72.40
62991;DHT22;49084;48.204;16.202;2023-04-25T08:37:19;17.90;70.10
62991;DHT22;49084;48.204;16.202;2023-04-25T08:39:45;17.80;69.50
62991;DHT22;49084;48.204;16.202;2023-04-25T08:42:15;17.10;70.40
62991;DHT22;49084;48.204;16.202;2023-04-25T08:44:41;15.90;73.90
62991;DHT22;49084;48.204;16.202;2023-04-25T08:47:06;15.00;76.50
62991;DHT22;49084;48.204;16.202;2023-04-25T08:49:33;14.40;79.60
62991;DHT22;49084;48.204;16.202;2023-04-25T08:52:04;14.10;82.90
62991;DHT22;49084;48.204;16.202;2023-04-25T08:54:32;14.10;83.90
62991;DHT22;49084;48.204;16.202;2023-04-25T08:57:02;14.80;84.60
62991;DHT22;49084;48.204;16.202;2023-04-25T08:59:30;16.00;79.70
62991;DHT22;49084;48.204;16.202;2023-04-25T09:01:57;16.00;76.20
62991;DHT22;49084;48.204;16.202;2023-04-25T09:04:22;15.70;76.80
62991;DHT22;49084;48.204;16.202;2023-04-25T09:06:48;15.20;76.70
62991;DHT22;49084;48.204;16.202;2023-04-25T09:09:13;14.60;80.80
62991;DHT22;49084;48.204;16.202;2023-04-25T09:11:39;14.00;85.40
62991;DHT22;49084;48.204;16.202;2023-04-25T09:14:14;13.50;89.70
62991;DHT22;49084;48.204;16.202;2023-04-25T09:19:39;12.80;97.80
62991;DHT22;49084;48.204;16.202;2023-04-25T09:22:06;12.50;99.90
62991;DHT22;49084;48.204;16.202;2023-04-25T09:24:43;12.40;99.90
62991;DHT22;49084;48.204;16.202;2023-04-25T09:27:11;12.30;99.90
62991;DHT22;49084;48.204;16.202;2023-04-25T09:29:39;12.50;99.90
62991;DHT22;49084;48.204;16.202;2023-04-25T09:32:18;12.70;99.90
62991;DHT22;49084;48.204;16.202;2023-04-25T09:34:49;13.00;99.90
62991;DHT22;49084;48.204;16.202;2023-04-25T09:37:23;13.20;99.90
62991;DHT22;49084;48.204;16.202;2023-04-25T09:39:52;13.20;99.90
62991;DHT22;49084;48.204;16.202;2023-04-25T09:42:18;13.00;99.30
62991;DHT22;49084;48.204;16.202;2023-04-25T09:44:46;12.80;97.40
62991;DHT22;49084;48.204;16.202;2023-04-25T09:47:14;12.60;96.60
62991;DHT22;49084;48.204;16.202;2023-04-25T09:49:41;12.40;97.60
62991;DHT22;49084;48.204;16.202;2023-04-25T09:52:19;12.40;97.50
62991;DHT22;49084;48.204;16.202;2023-04-25T09:54:45;12.30;96.50
62991;DHT22;49084;48.204;16.202;2023-04-25T09:57:19;12.20;97.80
62991;DHT22;49084;48.204;16.202;2023-04-25T10:02:11;12.10;99.70
62991;DHT22;49084;48.204;16.202;2023-04-25T10:04:38;12.00;99.20
62991;DHT22;49084;48.204;16.202;2023-04-25T10:07:07;11.90;99.90
62991;DHT22;49084;48.204;16.202;2023-04-25T10:09:37;11.90;99.90
62991;DHT22;49084;48.204;16.202;2023-04-25T10:12:03;11.80;99.90
62991;DHT22;49084;48.204;16.202;2023-04-25T10:14:31;11.40;99.90
62991;DHT22;49084;48.204;16.202;2023-04-25T10:16:58;11.00;99.90
62991;DHT22;49084;48.204;16.202;2023-04-25T10:19:25;10.60;99.90
62991;DHT22;49084;48.204;16.202;2023-04-25T10:22:30;10.50;99.90
62991;DHT22;49084;48.204;16.202;2023-04-25T10:24:58;10.60;99.90
62991;DHT22;49084;48.204;16.202;2023-04-25T10:27:26;11.20;99.90
62991;DHT22;49084;48.204;16.202;2023-04-25T10:30:08;12.80;99.90
62991;DHT22;49084;48.204;16.202;2023-04-25T10:32:36;14.80;99.90
62991;DHT22;49084;48.204;16.202;2023-04-25T10:40:23;18.80;92.10
62991;DHT22;49084;48.204;16.202;2023-04-25T10:42:54;19.00;79.40
62991;DHT22;49084;48.204;16.202;2023-04-25T10:45:21;18.40;74.50
62991;DHT22;49084;48.204;16.202;2023-04-25T10:47:47;18.40;72.70
62991;DHT22;49084;48.204;16.202;2023-04-25T10:50:16;18.70;71.40
62991;DHT22;49084;48.204;16.202;2023-04-25T10:52:42;18.60;70.10
62991;DHT22;49084;48.204;16.202;2023-04-25T10:55:09;18.10;68.90
62991;DHT22;49084;48.204;16.202;2023-04-25T10:57:45;17.50;70.10
62991;DHT22;49084;48.204;16.202;2023-04-25T11:00:20;17.00;72.60
62991;DHT22;49084;48.204;16.202;2023-04-25T11:02:48;16.60;75.50
62991;DHT22;49084;48.204;16.202;2023-04-25T11:05:19;16.00;84.30
62991;DHT22;49084;48.204;16.202;2023-04-25T11:07:51;15.40;90.60
62991;DHT22;49084;48.204;16.202;2023-04-25T11:10:18;14.90;87.70
62991;DHT22;49084;48.204;16.202;2023-04-25T11:12:45;14.60;93.90
62991;DHT22;49084;48.204;16.202;2023-04-25T11:15:12;14.30;95.70
62991;DHT22;49084;48.204;16.202;2023-04-25T11:17:39;13.70;99.80
62991;DHT22;49084;48.204;16.202;2023-04-25T11:20:07;12.70;99.90
62991;DHT22;49084;48.204;16.202;2023-04-25T11:22:37;11.40;99.90
62991;DHT22;49084;48.204;16.202;2023-04-25T11:25:08;10.10;99.90
62991;DHT22;49084;48.204;16.202;2023-04-25T11:30:18;8.90;99.90
62991;DHT22;49084;48.204;16.202;2023-04-25T11:32:44;8.50;99.90
62991;DHT22;49084;48.204;16.202;2023-04-25T11:35:11;8.40;99.90
62991;DHT22;49084;48.204;16.202;2023-04-25T11:37:39;8.30;99.90
62991;DHT22;49084;48.204;16.202;2023-04-25T11:40:07;8.30;99.90
62991;DHT22;49084;48.204;16.202;2023-04-25T11:42:34;8.30;99.90
62991;DHT22;49084;48.204;16.202;2023-04-25T11:45:00;8.50;99.90
62991;DHT22;49084;48.204;16.202;2023-04-25T11:47:33;8.80;99.90
62991;DHT22;49084;48.204;16.202;2023-04-25T11:49:59;9.40;99.90
62991;DHT22;49084;48.204;16.202;2023-04-25T11:52:43;10.80;99.90
62991;DHT22;49084;48.204;16.202;2023-04-25T11:55:19;12.30;99.90
62991;DHT22;49084;48.204;16.202;2023-04-25T11:57:48;13.70;99.90
62991;DHT22;49084;48.204;16.202;2023-04-25T12:00:19;14.70;99.90
62991;DHT22;49084;48.204;16.202;2023-04-25T12:02:56;15.30;99.90
62991;DHT22;49084;48.204;16.202;2023-04-25T12:05:29;16.00;99.90
62991;DHT22;49084;48.204;16.202;2023-04-25T12:07:56;15.70;99.90
62991;DHT22;49084;48.204;16.202;2023-04-25T12:10:21;16.10;99.90
62991;DHT22;49084;48.204;16.202;2023-04-25T12:12:49;16.80;97.80
62991;DHT22;49084;48.204;16.202;2023-04-25T12:15:26;17.00;97.80
62991;DHT22;49084;48.204;16.202;2023-04-25T12:17:54;16.30;97.30
62991;DHT22;49084;48.204;16.202;2023-04-25T12:20:23;16.40;96.90
62991;DHT22;49084;48.204;16.202;2023-04-25T12:22:50;17.00;95.60
62991;DHT22;49084;48.204;16.202;2023-04-25T12:25:38;17.10;94.60
62991;DHT22;49084;48.204;16.202;2023-04-25T12:28:16;17.10;91.90
62991;DHT22;49084;48.204;16.202;2023-04-25T12:31:00;16.80;91.70
62991;DHT22;49084;48.204;16.202;2023-04-25T12:33:32;16.80;90.70
62991;DHT22;49084;48.204;16.202;2023-04-25T12:35:58;16.10;93.10
62991;DHT22;49084;48.204;16.202;2023-04-25T12:38:29;16.40;91.30
62991;DHT22;49084;48.204;16.202;2023-04-25T12:40:56;17.10;90.10
62991;DHT22;49084;48.204;16.202;2023-04-25T12:43:22;17.70;86.50
62991;DHT22;49084;48.204;16.202;2023-04-25T12:45:49;17.60;84.10
62991;DHT22;49084;48.204;16.202;2023-04-25T12:48:18;17.40;81.90
62991;DHT22;49084;48.204;16.202;2023-04-25T12:50:44;17.50;83.80
62991;DHT22;49084;48.204;16.202;2023-04-25T12:53:11;18.20;82.30
62991;DHT22;49084;48.204;16.202;2023-04-25T12:55:37;18.70;76.30
62991;DHT22;49084;48.204;16.202;2023-04-25T12:58:03;18.90;72.10
62991;DHT22;49084;48.204;16.202;2023-04-25T13:00:29;19.10;69.60
62991;DHT22;49084;48.204;16.202;2023-04-25T13:02:55;19.60;67.80
62991;DHT22;49084;48.204;16.202;2023-04-25T13:05:21;20.10;65.30
62991;DHT22;49084;48.204;16.202;2023-04-25T13:07:47;20.20;62.90
62991;DHT22;49084;48.204;16.202;2023-04-25T13:10:12;20.10;60.20
62991;DHT22;49084;48.204;16.202;2023-04-25T13:12:38;19.50;60.00
62991;DHT22;49084;48.204;16.202;2023-04-25T13:15:04;19.50;61.90
62991;DHT22;49084;48.204;16.202;2023-04-25T13:17:30;19.70;61.20
62991;DHT22;49084;48.204;16.202;2023-04-25T13:19:55;19.90;57.90
62991;DHT22;49084;48.204;16.202;2023-04-25T13:22:21;20.10;59.80
62991;DHT22;49084;48.204;16.202;2023-04-25T13:24:47;20.20;58.70
62991;DHT22;49084;48.204;16.202;2023-04-25T13:27:13;19.80;55.70
62991;DHT22;49084;48.204;16.202;2023-04-25T13:29:38;19.60;57.60
62991;DHT22;49084;48.204;16.202;2023-04-25T13:32:06;19.80;56.40
62991;DHT22;49084;48.204;16.202;2023-04-25T13:34:32;19.60;56.30
62991;DHT22;49084;48.204;16.202;2023-04-25T13:36:58;19.30;59.30
62991;DHT22;49084;48.204;16.202;2023-04-25T13:39:24;19.00;58.70
62991;DHT22;49084;48.204;16.202;2023-04-25T13:41:49;18.40;60.70
62991;DHT22;49084;48.204;16.202;2023-04-25T13:44:15;18.40;61.90
62991;DHT22;49084;48.204;16.202;2023-04-25T13:46:41;18.80;61.20
62991;DHT22;49084;48.204;16.202;2023-04-25T13:49:07;18.00;59.00
62991;DHT22;49084;48.204;16.202;2023-04-25T13:51:33;17.90;60.10
62991;DHT22;49084;48.204;16.202;2023-04-25T13:53:58;17.90;59.00
62991;DHT22;49084;48.204;16.202;2023-04-25T13:56:24;17.90;60.40
62991;DHT22;49084;48.204;16.202;2023-04-25T13:58:50;17.80;61.90
62991;DHT22;49084;48.204;16.202;2023-04-25T14:01:17;18.00;62.40
62991;DHT22;49084;48.204;16.202;2023-04-25T14:03:43;18.10;60.20
62991;DHT22;49084;48.204;16.202;2023-04-25T14:06:08;18.10;61.30
62991;DHT22;49084;48.204;16.202;2023-04-25T14:08:34;18.30;60.90
62991;DHT22;49084;48.204;16.202;2023-04-25T14:11:00;18.00;60.50
62991;DHT22;49084;48.204;16.202;2023-04-25T14:13:26;18.20;60.10
62991;DHT22;49084;48.204;16.202;2023-04-25T14:15:52;18.30;61.50
62991;DHT22;49084;48.204;16.202;2023-04-25T14:18:18;17.90;61.00
62991;DHT22;49084;48.204;16.202;2023-04-25T14:20:44;17.40;61.30
62991;DHT22;49084;48.204;16.202;2023-04-25T14:23:10;16.80;63.50
62991;DHT22;49084;48.204;16.202;2023-04-25T14:25:36;16.40;64.60
62991;DHT22;49084;48.204;16.202;2023-04-25T14:28:02;15.80;65.20
62991;DHT22;49084;48.204;16.202;2023-04-25T14:30:28;15.40;68.00
62991;DHT22;49084;48.204;16.202;2023-04-25T14:32:53;15.40;68.70
62991;DHT22;49084;48.204;16.202;2023-04-25T14:35:19;15.30;69.10
62991;DHT22;49084;48.204;16.202;2023-04-25T14:37:45;15.60;68.50
62991;DHT22;49084;48.204;16.202;2023-04-25T14:40:11;15.50;68.80
62991;DHT22;49084;48.204;16.202;2023-04-25T14:42:41;15.40;68.90
62991;DHT22;49084;48.204;16.202;2023-04-25T14:45:08;15.70;68.90
62991;DHT22;49084;48.204;16.202;2023-04-25T14:47:34;15.90;68.60
62991;DHT22;49084;48.204;16.202;2023-04-25T14:50:00;15.60;69.00
62991;DHT22;49084;48.204;16.202;2023-04-25T14:52:27;15.30;68.60
62991;DHT22;49084;48.204;16.202;2023-04-25T14:54:52;15.30;70.80
62991;DHT22;49084;48.204;16.202;2023-04-25T14:57:18;15.80;70.70
62991;DHT22;49084;48.204;16.202;2023-04-25T14:59:44;16.20;70.90
62991;DHT22;49084;48.204;16.202;2023-04-25T15:02:10;16.60;71.60
62991;DHT22;49084;48.204;16.202;2023-04-25T15:04:36;16.90;70.60
62991;DHT22;49084;48.204;16.202;2023-04-25T15:07:02;17.00;70.30
62991;DHT22;49084;48.204;16.202;2023-04-25T15:09:28;16.20;73.10
62991;DHT22;49084;48.204;16.202;2023-04-25T15:11:53;15.80;75.60
62991;DHT22;49084;48.204;16.202;2023-04-25T15:14:19;15.30;79.00
62991;DHT22;49084;48.204;16.202;2023-04-25T15:16:45;15.40;81.10
62991;DHT22;49084;48.204;16.202;2023-04-25T15:19:11;15.60;76.00
62991;DHT22;49084;48.204;16.202;2023-04-25T15:21:37;16.00;73.00
62991;DHT22;49084;48.204;16.202;2023-04-25T15:24:02;15.70;71.90
62991;DHT22;49084;48.204;16.202;2023-04-25T15:26:28;15.90;72.00
62991;DHT22;49084;48.204;16.202;2023-04-25T15:28:54;15.90;72.20
62991;DHT22;49084;48.204;16.202;2023-04-25T15:31:19;16.00;72.80
62991;DHT22;49084;48.204;16.202;2023-04-25T15:33:45;15.80;73.50